createdAt,value
2019-02-06T00:01:07.268Z,23.02
2019-02-06T00:03:36.814Z,23.30
2019-02-06T00:06:06.989Z,23.27
2019-02-06T00:08:36.552Z,23.07
2019-02-06T00:11:06.197Z,24.67
2019-02-06T00:13:36.065Z,25.82
2019-02-06T00:16:06.134Z,24.43
2019-02-06T00:18:35.954Z,24.02
2019-02-06T00:21:05.468Z,23.62
2019-02-06T00:23:34.907Z,24.55
2019-02-06T00:26:04.593Z,22.80
2019-02-06T00:28:34.237Z,22.60
2019-02-06T00:31:03.698Z,20.65
2019-02-06T00:33:33.233Z,21.73
2019-02-06T00:36:02.706Z,24.43
2019-02-06T00:38:32.135Z,21.23
2019-02-06T00:41:01.640Z,20.30
2019-02-06T00:43:31.110Z,22.32
2019-02-06T00:46:21.739Z,22.52
2019-02-06T00:48:51.169Z,24.45
2019-02-06T00:51:20.626Z,23.30
2019-02-06T00:53:50.344Z,20.65
2019-02-06T00:56:19.812Z,23.40
2019-02-06T00:58:49.250Z,21.42
2019-02-06T01:01:18.721Z,21.80
2019-02-06T01:03:48.197Z,21.02
2019-02-06T01:06:17.620Z,22.73
2019-02-06T01:08:47.410Z,24.35
2019-02-06T01:11:16.870Z,20.68
2019-02-06T01:13:46.419Z,23.12
2019-02-06T01:16:15.813Z,21.75
2019-02-06T01:18:45.263Z,20.45
2019-02-06T01:21:14.681Z,21.50
2019-02-06T01:23:44.444Z,22.17
2019-02-06T01:26:13.865Z,22.50
2019-02-06T01:28:43.323Z,21.82
2019-02-06T01:31:22.909Z,23.20
2019-02-06T01:33:52.357Z,20.25
2019-02-06T01:36:21.801Z,21.25
2019-02-06T01:38:51.252Z,20.92
2019-02-06T01:41:20.728Z,22.10
2019-02-06T01:43:50.177Z,20.70
2019-02-06T01:46:19.589Z,19.70
2019-02-06T01:48:49.056Z,18.90
2019-02-06T01:51:18.517Z,20.25
2019-02-06T01:53:47.966Z,20.88
2019-02-06T01:56:17.399Z,22.17
2019-02-06T01:58:46.969Z,20.77
2019-02-06T02:01:16.537Z,20.40
2019-02-06T02:03:46.018Z,21.82
2019-02-06T02:06:15.471Z,20.65
2019-02-06T02:08:50.745Z,20.97
2019-02-06T02:11:20.208Z,20.40
2019-02-06T02:13:49.690Z,21.65
2019-02-06T02:16:19.145Z,20.65
2019-02-06T02:18:48.630Z,21.25
2019-02-06T02:21:18.085Z,19.87
2019-02-06T02:23:47.573Z,20.97
2019-02-06T02:26:17.096Z,20.52
2019-02-06T02:28:46.575Z,21.27
2019-02-06T02:31:16.159Z,20.23
2019-02-06T02:33:45.614Z,19.40
2019-02-06T02:36:16.583Z,20.05
2019-02-06T02:38:46.178Z,21.02
2019-02-06T02:41:15.765Z,20.27
2019-02-06T02:43:45.208Z,21.10
2019-02-06T02:46:14.798Z,21.87
2019-02-06T02:48:44.245Z,19.60
2019-02-06T02:51:15.834Z,19.87
2019-02-06T02:53:45.295Z,19.25
2019-02-06T02:56:14.771Z,20.32
2019-02-06T02:58:44.252Z,19.70
2019-02-06T03:01:25.773Z,20.70
2019-02-06T03:04:02.121Z,17.60
2019-02-06T03:06:31.807Z,21.35
2019-02-06T03:09:01.260Z,19.45
2019-02-06T03:11:30.730Z,20.45
2019-02-06T03:14:00.186Z,20.30
2019-02-06T03:16:30.055Z,20.35
2019-02-06T03:18:59.479Z,21.90
2019-02-06T03:21:28.932Z,20.92
2019-02-06T03:23:58.352Z,18.87
2019-02-06T03:26:27.888Z,19.73
2019-02-06T03:28:57.294Z,20.65
2019-02-06T03:31:27.145Z,20.55
2019-02-06T03:33:56.549Z,18.52
2019-02-06T03:36:26.031Z,16.87
2019-02-06T03:38:56.915Z,20.15
2019-02-06T03:41:26.438Z,17.82
2019-02-06T03:43:55.870Z,17.98
2019-02-06T03:46:27.109Z,18.42
2019-02-06T03:48:56.522Z,18.30
2019-02-06T03:51:26.007Z,18.37
2019-02-06T03:53:55.990Z,16.30
2019-02-06T03:56:25.453Z,17.75
2019-02-06T03:58:54.880Z,18.00
2019-02-06T04:01:24.869Z,17.60
2019-02-06T04:03:54.302Z,16.97
2019-02-06T04:06:24.086Z,17.57
2019-02-06T04:08:53.546Z,18.60
2019-02-06T04:11:22.980Z,16.60
2019-02-06T04:13:52.436Z,15.35
2019-02-06T04:16:22.277Z,18.15
2019-02-06T04:18:51.729Z,17.10
2019-02-06T04:21:21.174Z,16.73
2019-02-06T04:23:50.634Z,15.80
2019-02-06T04:26:20.124Z,18.87
2019-02-06T04:28:49.588Z,18.90
2019-02-06T04:31:19.408Z,19.52
2019-02-06T04:33:48.842Z,17.02
2019-02-06T04:36:18.265Z,20.65
2019-02-06T04:38:47.806Z,18.05
2019-02-06T04:41:17.336Z,19.60
2019-02-06T04:43:46.781Z,16.65
2019-02-06T04:46:16.658Z,17.50
2019-02-06T04:48:46.111Z,15.90
2019-02-06T04:51:15.533Z,18.45
2019-02-06T04:53:44.996Z,16.27
2019-02-06T04:56:14.421Z,15.38
2019-02-06T04:58:43.968Z,18.57
2019-02-06T05:01:13.805Z,16.27
2019-02-06T05:03:43.256Z,15.55
2019-02-06T05:06:12.674Z,18.90
2019-02-06T05:08:42.125Z,16.90
2019-02-06T05:11:11.545Z,16.25
2019-02-06T05:13:40.986Z,15.00
2019-02-06T05:16:10.536Z,17.50
2019-02-06T05:18:39.976Z,15.85
2019-02-06T05:21:09.400Z,17.12
2019-02-06T05:23:38.870Z,15.68
2019-02-06T05:26:08.306Z,16.85
2019-02-06T05:28:37.772Z,15.45
2019-02-06T05:31:07.213Z,16.80
2019-02-06T05:33:36.642Z,16.65
2019-02-06T05:36:06.596Z,17.00
2019-02-06T05:38:36.078Z,18.10
2019-02-06T05:41:05.523Z,16.75
2019-02-06T05:43:35.249Z,16.80
2019-02-06T05:46:04.708Z,17.37
2019-02-06T05:48:34.428Z,17.42
2019-02-06T05:51:03.914Z,15.93
2019-02-06T05:53:33.330Z,15.63
2019-02-06T05:56:02.857Z,15.53
2019-02-06T05:58:32.274Z,16.57
2019-02-06T06:01:01.853Z,16.20
2019-02-06T06:03:31.665Z,15.20
2019-02-06T06:06:01.121Z,16.82
2019-02-06T06:08:30.549Z,18.87
2019-02-06T06:11:00.066Z,18.07
2019-02-06T06:13:29.522Z,15.03
2019-02-06T06:15:58.946Z,15.85
2019-02-06T06:18:28.380Z,15.28
2019-02-06T06:20:57.837Z,16.50
2019-02-06T06:23:27.256Z,15.58
2019-02-06T06:25:56.738Z,16.57
2019-02-06T06:28:27.128Z,15.68
2019-02-06T06:30:56.575Z,18.90
2019-02-06T06:33:26.002Z,15.88
2019-02-06T06:35:55.651Z,15.35
2019-02-06T06:38:25.072Z,14.93
2019-02-06T06:40:54.532Z,17.35
2019-02-06T06:43:23.947Z,15.65
2019-02-06T06:45:53.365Z,17.00
2019-02-06T06:48:22.818Z,17.40
2019-02-06T06:50:52.414Z,17.30
2019-02-06T06:53:21.877Z,16.50
2019-02-06T06:55:51.352Z,16.82
2019-02-06T06:58:20.776Z,18.75
2019-02-06T07:00:50.251Z,19.05
2019-02-06T07:03:19.688Z,18.12
2019-02-06T07:05:49.458Z,18.48
2019-02-06T07:08:18.882Z,18.52
2019-02-06T07:10:48.304Z,17.27
2019-02-06T07:13:17.808Z,18.40
2019-02-06T07:15:47.272Z,18.35
2019-02-06T07:18:16.761Z,17.90
2019-02-06T07:20:46.492Z,18.92
2019-02-06T07:23:16.093Z,18.07
2019-02-06T07:25:45.604Z,19.45
2019-02-06T07:28:15.065Z,20.08
2019-02-06T07:30:44.529Z,18.10
2019-02-06T07:33:13.985Z,19.45
2019-02-06T07:35:43.676Z,19.85
2019-02-06T07:38:23.603Z,18.95
2019-02-06T07:40:44.219Z,19.30
2019-02-06T07:43:13.816Z,19.05
2019-02-06T07:45:43.293Z,18.27
2019-02-06T07:48:12.877Z,18.07
2019-02-06T07:50:42.504Z,17.62
2019-02-06T07:53:11.949Z,18.05
2019-02-06T07:55:41.361Z,19.00
2019-02-06T07:58:10.834Z,20.15
2019-02-06T08:00:40.373Z,19.85
2019-02-06T08:03:09.845Z,18.75
2019-02-06T08:05:39.656Z,19.17
2019-02-06T08:08:09.177Z,17.92
2019-02-06T08:10:38.604Z,17.12
2019-02-06T08:13:08.264Z,19.20
2019-02-06T08:15:37.680Z,19.15
2019-02-06T08:18:07.586Z,20.43
2019-02-06T08:20:37.296Z,18.52
2019-02-06T08:23:06.760Z,20.25
2019-02-06T08:25:36.176Z,18.73
2019-02-06T08:28:05.638Z,21.07
2019-02-06T08:30:37.602Z,19.42
2019-02-06T08:33:07.050Z,20.10
2019-02-06T08:35:36.775Z,22.48
2019-02-06T08:38:06.345Z,19.12
2019-02-06T08:40:35.763Z,19.80
2019-02-06T08:43:05.318Z,19.32
2019-02-06T08:45:34.781Z,20.27
2019-02-06T08:48:04.634Z,19.95
2019-02-06T08:50:35.046Z,19.85
2019-02-06T08:53:04.495Z,21.75
2019-02-06T08:55:34.126Z,20.25
2019-02-06T08:58:04.035Z,19.87
2019-02-06T09:00:35.537Z,19.23
2019-02-06T09:03:06.207Z,17.67
2019-02-06T09:05:35.717Z,20.40
2019-02-06T09:08:05.649Z,21.52
2019-02-06T09:10:35.085Z,19.05
2019-02-06T09:13:05.146Z,20.88
2019-02-06T09:15:34.598Z,21.85
2019-02-06T09:18:04.305Z,19.62
2019-02-06T09:20:33.801Z,21.48
2019-02-06T09:23:03.719Z,20.77
2019-02-06T09:25:33.174Z,19.90
2019-02-06T09:28:02.610Z,22.85
2019-02-06T09:30:33.522Z,22.10
2019-02-06T09:33:03.654Z,22.48
2019-02-06T09:35:33.120Z,20.45
2019-02-06T09:38:02.563Z,22.48
2019-02-06T09:40:32.238Z,20.90
2019-02-06T09:43:01.831Z,20.77
2019-02-06T09:45:36.086Z,20.72
2019-02-06T09:48:06.255Z,22.20
2019-02-06T09:50:37.778Z,20.45
2019-02-06T09:53:07.228Z,20.50
2019-02-06T09:55:37.179Z,22.05
2019-02-06T09:58:07.081Z,22.60
2019-02-06T10:00:38.098Z,22.93
2019-02-06T10:03:08.409Z,22.58
2019-02-06T10:05:38.268Z,21.15
2019-02-06T10:08:07.753Z,22.67
2019-02-06T10:10:37.673Z,22.55
2019-02-06T10:13:07.198Z,22.60
2019-02-06T10:15:38.396Z,22.67
2019-02-06T10:18:08.550Z,21.95
2019-02-06T10:20:40.597Z,23.00
2019-02-06T10:23:10.831Z,21.60
2019-02-06T10:25:40.375Z,22.60
2019-02-06T10:28:10.002Z,20.72
2019-02-06T10:30:42.736Z,19.20
2019-02-06T10:33:12.238Z,20.08
2019-02-06T10:35:41.777Z,22.20
2019-02-06T10:38:11.731Z,22.07
2019-02-06T10:40:41.382Z,21.10
2019-02-06T10:43:10.823Z,21.80
2019-02-06T10:45:40.665Z,20.97
2019-02-06T10:48:10.411Z,21.62
2019-02-06T10:50:48.264Z,20.30
2019-02-06T10:53:17.844Z,21.97
2019-02-06T10:55:47.560Z,22.22
2019-02-06T10:58:17.465Z,22.48
2019-02-06T11:00:55.929Z,22.20
2019-02-06T11:03:25.391Z,21.82
2019-02-06T11:05:54.810Z,21.40
2019-02-06T11:08:24.260Z,23.73
2019-02-06T11:10:53.721Z,23.60
2019-02-06T11:13:23.300Z,23.10
2019-02-06T11:15:52.756Z,23.98
2019-02-06T11:18:22.491Z,24.85
2019-02-06T11:20:51.965Z,23.73
2019-02-06T11:23:21.587Z,22.67
2019-02-06T11:25:51.002Z,23.25
2019-02-06T11:28:20.455Z,23.12
2019-02-06T11:30:49.880Z,22.83
2019-02-06T11:33:19.421Z,21.95
2019-02-06T11:35:48.890Z,24.37
2019-02-06T11:38:18.324Z,26.13
2019-02-06T11:40:47.796Z,24.75
2019-02-06T11:43:17.249Z,23.60
2019-02-06T11:45:46.674Z,26.10
2019-02-06T11:48:16.932Z,25.50
2019-02-06T11:50:46.351Z,24.72
2019-02-06T11:53:26.386Z,21.45
2019-02-06T11:55:56.199Z,24.77
2019-02-06T11:58:26.006Z,22.67
2019-02-06T12:01:33.391Z,23.93
2019-02-06T12:04:03.444Z,23.23
2019-02-06T12:06:32.890Z,21.83
2019-02-06T12:09:02.348Z,20.77
2019-02-06T12:11:31.774Z,21.47
2019-02-06T12:14:02.589Z,21.70
2019-02-06T12:16:32.670Z,22.00
2019-02-06T12:19:02.281Z,20.00
2019-02-06T12:21:31.696Z,19.50
2019-02-06T12:24:01.324Z,21.47
2019-02-06T12:26:30.787Z,20.60
2019-02-06T12:29:00.207Z,21.17
2019-02-06T12:31:29.644Z,22.80
2019-02-06T12:33:59.084Z,22.30
2019-02-06T12:36:28.554Z,22.00
2019-02-06T12:38:57.974Z,22.00
2019-02-06T12:41:27.433Z,21.20
2019-02-06T12:43:56.849Z,23.93
2019-02-06T12:46:26.330Z,22.10
2019-02-06T12:48:55.737Z,21.77
2019-02-06T12:51:25.307Z,21.33
2019-02-06T12:53:54.754Z,22.70
2019-02-06T12:56:24.204Z,24.30
2019-02-06T12:58:54.762Z,22.50
2019-02-06T13:01:24.256Z,24.17
2019-02-06T13:03:53.672Z,20.93
2019-02-06T13:06:23.340Z,22.10
2019-02-06T13:08:52.781Z,21.90
2019-02-06T13:11:22.233Z,21.70
2019-02-06T13:13:51.664Z,22.47
2019-02-06T13:16:21.109Z,22.17
2019-02-06T13:18:50.552Z,22.30
2019-02-06T13:21:20.313Z,21.30
2019-02-06T13:23:49.760Z,23.37
2019-02-06T13:26:19.216Z,22.83
2019-02-06T13:28:48.631Z,23.67
2019-02-06T13:31:18.080Z,21.80
2019-02-06T13:33:47.493Z,22.27
2019-02-06T13:36:17.176Z,22.00
2019-02-06T13:38:46.616Z,21.43
2019-02-06T13:41:16.093Z,21.30
2019-02-06T13:43:45.515Z,21.80
2019-02-06T13:46:14.968Z,19.97
2019-02-06T13:48:44.380Z,22.70
2019-02-06T13:51:16.526Z,22.20
2019-02-06T13:53:45.213Z,23.17
2019-02-06T13:56:14.639Z,21.83
2019-02-06T13:58:44.089Z,21.97
2019-02-06T14:01:25.365Z,22.87
2019-02-06T14:03:45.998Z,22.70
2019-02-06T14:06:15.526Z,22.43
2019-02-06T14:08:45.005Z,21.30
2019-02-06T14:11:14.483Z,23.20
2019-02-06T14:13:43.933Z,22.30
2019-02-06T14:16:13.457Z,22.87
2019-02-06T14:18:42.937Z,22.63
2019-02-06T14:21:12.353Z,21.80
2019-02-06T14:23:54.877Z,23.43
2019-02-06T14:26:45.891Z,20.30
2019-02-06T14:30:13.186Z,21.87
2019-02-06T14:33:11.450Z,22.30
2019-02-06T14:36:30.976Z,23.47
2019-02-06T14:39:33.319Z,22.80
2019-02-06T14:42:59.131Z,21.30
2019-02-06T14:46:11.072Z,23.50
2019-02-06T14:49:10.822Z,23.33
2019-02-06T14:52:14.428Z,23.73
2019-02-06T14:55:21.365Z,22.53
2019-02-06T14:58:21.437Z,21.27
2019-02-06T15:01:31.837Z,21.53
2019-02-06T15:04:29.842Z,21.13
2019-02-06T15:07:40.248Z,22.07
2019-02-06T15:10:53.879Z,23.70
2019-02-06T15:14:25.936Z,23.00
2019-02-06T15:17:54.486Z,22.27
2019-02-06T15:20:46.789Z,22.50
2019-02-06T15:23:37.367Z,28.90
2019-02-06T15:26:54.261Z,23.20
2019-02-06T15:29:58.321Z,23.93
2019-02-06T15:32:50.688Z,22.80
2019-02-06T15:35:52.718Z,25.57
2019-02-06T15:39:21.822Z,24.40
2019-02-06T15:42:16.794Z,24.97
2019-02-06T15:45:18.005Z,26.10
2019-02-06T15:48:15.311Z,26.50
2019-02-06T15:51:10.848Z,27.20
2019-02-06T15:54:04.699Z,26.87
2019-02-06T15:57:24.292Z,27.00
2019-02-06T16:00:25.271Z,28.20
2019-02-06T16:03:12.782Z,27.23
2019-02-06T16:06:42.833Z,27.33
2019-02-06T16:09:50.661Z,28.10
2019-02-06T16:12:43.014Z,26.20
2019-02-06T16:15:31.326Z,29.90
2019-02-06T16:18:13.196Z,26.27
2019-02-06T16:21:18.365Z,28.50
2019-02-06T16:24:11.688Z,29.83
2019-02-06T16:27:16.781Z,27.90
2019-02-06T16:30:30.400Z,29.93
2019-02-06T16:33:25.786Z,28.40
2019-02-06T16:36:48.407Z,29.60
2019-02-06T16:39:53.482Z,27.30
2019-02-06T16:42:57.828Z,27.57
2019-02-06T16:45:33.983Z,27.80
2019-02-06T16:48:36.317Z,30.57
2019-02-06T16:51:14.050Z,27.37
2019-02-06T16:54:27.160Z,26.70
2019-02-06T16:57:52.981Z,30.50
2019-02-06T17:01:10.992Z,29.30
2019-02-06T17:04:24.516Z,27.90
2019-02-06T17:07:20.625Z,29.50
2019-02-06T17:10:44.694Z,26.30
2019-02-06T17:13:40.846Z,28.20
2019-02-06T17:16:37.168Z,26.93
2019-02-06T17:19:41.169Z,29.00
2019-02-06T17:23:00.844Z,29.53
2019-02-06T17:26:09.658Z,25.93
2019-02-06T17:29:08.502Z,28.33
2019-02-06T17:32:14.457Z,28.70
2019-02-06T17:35:06.584Z,27.07
2019-02-06T17:38:06.251Z,24.97
2019-02-06T17:41:15.685Z,26.07
2019-02-06T17:44:22.629Z,24.27
2019-02-06T17:47:19.111Z,27.83
2019-02-06T17:50:56.936Z,26.00
2019-02-06T17:53:54.325Z,26.80
2019-02-06T17:56:25.054Z,26.60
2019-02-06T17:58:54.706Z,25.87
2019-02-06T18:01:40.329Z,28.03
2019-02-06T18:04:12.471Z,28.20
2019-02-06T18:06:41.912Z,25.87
2019-02-06T18:09:20.643Z,25.73
2019-02-06T18:11:52.289Z,24.93
2019-02-06T18:14:21.963Z,24.70
2019-02-06T18:16:51.561Z,24.07
2019-02-06T18:19:21.004Z,23.10
2019-02-06T18:21:50.782Z,21.53
2019-02-06T18:24:20.220Z,23.70
2019-02-06T18:26:49.987Z,24.97
2019-02-06T18:29:19.472Z,22.77
2019-02-06T18:31:48.967Z,23.37
2019-02-06T18:34:18.457Z,24.93
2019-02-06T18:36:47.877Z,23.70
2019-02-06T18:39:18.165Z,23.10
2019-02-06T18:41:47.729Z,24.00
2019-02-06T18:44:17.164Z,24.33
2019-02-06T18:46:48.635Z,24.57
2019-02-06T18:49:18.184Z,24.17
2019-02-06T18:51:47.610Z,23.20
2019-02-06T18:54:17.751Z,23.97
2019-02-06T18:56:47.539Z,22.07
2019-02-06T18:59:17.004Z,21.90
2019-02-06T19:01:46.499Z,22.90
2019-02-06T19:04:18.420Z,21.03
2019-02-06T19:06:47.883Z,21.40
2019-02-06T19:09:18.130Z,21.73
2019-02-06T19:11:47.648Z,22.50
2019-02-06T19:14:17.496Z,20.80
2019-02-06T19:16:46.941Z,20.73
2019-02-06T19:19:25.206Z,21.43
2019-02-06T19:21:47.592Z,22.20
2019-02-06T19:24:17.833Z,22.40
2019-02-06T19:26:47.405Z,20.40
2019-02-06T19:29:16.913Z,20.10
2019-02-06T19:31:46.762Z,21.03
2019-02-06T19:34:16.250Z,22.07
2019-02-06T19:36:45.824Z,22.00
2019-02-06T19:39:15.255Z,22.30
2019-02-06T19:41:44.728Z,23.30
2019-02-06T19:44:14.152Z,21.10
2019-02-06T19:46:43.605Z,22.47
2019-02-06T19:49:13.022Z,21.83
2019-02-06T19:51:42.478Z,22.13
2019-02-06T19:54:11.898Z,20.93
2019-02-06T19:56:41.430Z,22.53
2019-02-06T19:59:10.862Z,22.63
2019-02-06T20:01:40.311Z,23.17
2019-02-06T20:04:09.861Z,21.60
2019-02-06T20:06:39.584Z,21.80
2019-02-06T20:09:13.783Z,22.90
2019-02-06T20:11:43.225Z,23.93
2019-02-06T20:14:12.654Z,24.83
2019-02-06T20:16:42.128Z,21.83
2019-02-06T20:19:11.556Z,22.80
2019-02-06T20:21:41.504Z,24.13
2019-02-06T20:24:11.126Z,25.03
2019-02-06T20:26:40.565Z,24.60
2019-02-06T20:29:10.030Z,23.13
2019-02-06T20:31:39.489Z,25.27
2019-02-06T20:34:08.942Z,25.37
2019-02-06T20:36:38.396Z,23.70
2019-02-06T20:39:09.457Z,25.37
2019-02-06T20:41:38.962Z,23.80
2019-02-06T20:44:08.385Z,23.73
2019-02-06T20:46:37.829Z,22.30
2019-02-06T20:49:07.270Z,23.30
2019-02-06T20:51:36.753Z,21.60
2019-02-06T20:54:06.283Z,24.40
2019-02-06T20:56:35.741Z,23.80
2019-02-06T20:59:05.589Z,26.47
2019-02-06T21:01:35.048Z,23.87
2019-02-06T21:04:04.912Z,23.75
2019-02-06T21:06:34.389Z,24.30
2019-02-06T21:09:05.954Z,24.85
2019-02-06T21:11:35.445Z,22.00
2019-02-06T21:14:05.010Z,23.80
2019-02-06T21:16:34.479Z,24.67
2019-02-06T21:19:03.941Z,23.33
2019-02-06T21:21:33.362Z,24.40
2019-02-06T21:24:02.824Z,23.62
2019-02-06T21:26:32.248Z,22.05
2019-02-06T21:29:01.702Z,22.90
2019-02-06T21:31:31.309Z,24.90
2019-02-06T21:34:01.042Z,24.00
2019-02-06T21:36:30.631Z,22.20
2019-02-06T21:39:00.175Z,24.03
2019-02-06T21:41:29.799Z,26.62
2019-02-06T21:43:59.340Z,25.60
2019-02-06T21:46:29.363Z,23.83
2019-02-06T21:48:58.789Z,26.47
2019-02-06T21:51:28.227Z,25.95
2019-02-06T21:53:57.702Z,27.05
2019-02-06T21:56:27.182Z,25.47
2019-02-06T21:58:56.616Z,25.75
2019-02-06T22:01:27.889Z,25.10
2019-02-06T22:03:57.345Z,23.55
2019-02-06T22:06:26.846Z,24.60
2019-02-06T22:08:56.522Z,26.48
2019-02-06T22:11:25.949Z,24.10
2019-02-06T22:13:56.507Z,24.07
2019-02-06T22:16:25.964Z,23.02
2019-02-06T22:18:55.415Z,25.88
2019-02-06T22:21:24.841Z,25.10
2019-02-06T22:23:54.585Z,24.77
2019-02-06T22:26:24.002Z,25.77
2019-02-06T22:28:53.451Z,23.93
2019-02-06T22:31:22.881Z,24.27
2019-02-06T22:33:52.343Z,24.32
2019-02-06T22:36:21.806Z,21.90
2019-02-06T22:38:51.665Z,25.05
2019-02-06T22:41:21.149Z,25.05
2019-02-06T22:43:50.603Z,24.15
2019-02-06T22:46:20.030Z,22.83
2019-02-06T22:48:49.477Z,24.55
2019-02-06T22:51:18.936Z,22.70
2019-02-06T22:53:48.791Z,24.67
2019-02-06T22:56:18.209Z,24.17
2019-02-06T22:58:47.661Z,25.17
2019-02-06T23:01:38.084Z,24.00
2019-02-06T23:04:07.833Z,26.12
2019-02-06T23:06:37.276Z,23.73
2019-02-06T23:09:08.906Z,24.23
2019-02-06T23:11:38.664Z,23.92
2019-02-06T23:14:17.129Z,23.87
2019-02-06T23:16:39.818Z,22.05
2019-02-06T23:19:09.289Z,23.50
2019-02-06T23:21:38.718Z,22.70
2019-02-06T23:24:08.186Z,22.15
2019-02-06T23:26:37.725Z,21.82
2019-02-06T23:29:07.378Z,21.50
2019-02-06T23:31:37.124Z,21.90
2019-02-06T23:34:06.854Z,22.35
2019-02-06T23:36:36.323Z,22.57
2019-02-06T23:39:14.935Z,21.85
2019-02-06T23:41:44.433Z,20.62
2019-02-06T23:44:14.186Z,21.87
2019-02-06T23:46:43.604Z,21.90
2019-02-06T23:49:13.054Z,21.20
2019-02-06T23:51:42.564Z,21.25
2019-02-06T23:54:12.358Z,22.20
2019-02-06T23:56:41.825Z,23.65
2019-02-06T23:59:11.745Z,21.15
